Buffalo, WY (82834)

12:49 AM MST on December 09, 2016 (GMT -0700)
Buffalo | | Change Station

Elev 4708 ft 44.34 °N, 106.70 °W | Updated 9 seconds ago

Overcast
Overcast
1.8 °F
Feels Like 2 °F
N
0.2
Wind Variable Wind from North
Gusts 2.5 mph

Today
High -- | Low -- °F
--% Chance of Precip.
Yesterday
High -- | Low -- °F
Precip. -- in
Pressure 30.09 in
Visibility 10.0 miles
Clouds Scattered Clouds 400 ft
Overcast 10000 ft
Windchill 2 °F
Dew Point -8 °F
Humidity 62%
Rainfall 0.00 in
Snow Depth Not available.
7:31 AM 4:27 PM
Waxing Gibbous, 71% visible
SPECI KBYG 090740Z AUTO 33007KT 10SM SCT004 OVC100 M18/M21 A3009 RMK AO2 T11781211
Pressure 30.09 in
Visibility 10.0 miles
Clouds Scattered Clouds 400 ft
Overcast 10000 ft
Windchill 2 °F
Dew Point -8 °F
Humidity 62%
Rainfall 0.00 in
Snow Depth Not available.
7:31 AM 4:27 PM
Waxing Gibbous, 71% visible
SPECI KBYG 090740Z AUTO 33007KT 10SM SCT004 OVC100 M18/M21 A3009 RMK AO2 T11781211

10-Day Weather Forecast

Almanac

Astronomy

Dec. 09, 2016 Rise Set
Actual Time
Civil Twilight
Nautical Twilight
Astronomical Twilight
Moon
Length of Visible Light
Length of Day
Tomorrow will be .
, % of the Moon is Illuminated

Today's Extremes

State Highs State Lows

Community

WunderPhotos

Upload Photos

1,956,374 photos uploaded!

WunderBlog® & News

Nearby

Air Quality

  Air Quality AQ Index Pollutant
Not available.

Snow Depth

Station Depth Elevation

Earthquake Activity

City Distance Mag. Time & Date
Minimum magnitude displayed is 2.5.

Coastal Water Temperatures

Place Temperature

Stations

Nearby Weather Stations

Station Location Temp. Windchill Dew Point Humidity Wind Precip. Elev Updated Type
                   

Watches & Warnings

There are currently no watches in effect.